Borsk

EPBO · 波美拉尼亞省, 波兰

使用的METAR站距离机场58 km。
罗盘
风向 的 Borsk 10/28
风向 到 风: 18 kt, 阵阵 28 kt, 5 beaufort

5 kt

17 kt
改变
0 ft 1.000 2.000 3.000 4.000 5.000
Cloud Cloud
FEW 300
Cloud Cloud Cloud Cloud Cloud Cloud
BKN 5.000
METAR EPGD 161500Z VRB18G28KT 5000 TSRA FEW003 BKN050CB 23/19 Q1010

METAR Borsk - EPBO

Borsk是,波兰中的小机场。 该机场位于纬度53,95105和经度17,94763。 该机场有一条跑道: 10/28. 本场的ICAO机场代码为EPBO。 机场在Warszawa FIR中。

该航空气象观测是针对Gdańsk Lech Wałęsa Airport在2024年7月16日 17:00, 当地时间进行的。

机场观察

可变方向的风很小或没有风。 已测得28 kt的阵风。

可见度为5 km。

有几云在300 ft的高度 和 碎云 积雨云在5.000 ft的高度。 破损或更高的上限为5.000 ft。

当前天气为雷暴 雨。 温度和风寒是23 °C。 露点为19 °C,相对湿度为78%。 海平面上的气压为1010 hPa (QNH)。

白天

今天,太阳从04:37升起,在21:10降落。 这适用于Borsk,世界夏令时可能有所不同。 当地时间与世界标准时间之间的时差为+2 小时。 夏令时目前正在进行中。

公司介绍

在这个机场,你可以找到飞行俱乐部 和 飞行学校。 这个机场上的公司有SzkolenieParalotniowe.pl 和 Collage LotyParalotnia.pl。

体会

到Vliegles.nl去找飞行课程,跳伞和其他飞行体验。 浏览页面,了解Borsk附近所有可用的活动。 你也可以使用搜索功能来寻找你所在地附近的特定飞行课程、跳伞或其他飞行体验。

跑道

Id 标题 侧风 逆风 侧风 %
10/28 107°-287° 17-27 kt 5-8 kt 96 %

逆风成分最大的方向会被突出显示,并用于横风计算。 这并不一定意味着这个方向在使用。

乌云

300 ft FEW 几云
5.000 ft BKN 碎云 积雨云

温度 & 天气

天气 雷暴 雨
温度 23 °C
露点 19 °C
相对湿度 78%
Kp-index 0 (0-9)

白天

日出
04:33
中午
12:52
日落
21:11 (3:36)

小工具

你想在你的网站上有一个关于Borsk的当前航空天气(METAR)的小部件吗?

显示HTML代码
报告变更